createdAt,value
2018-07-20T00:00:17.194Z,6.87
2018-07-20T00:02:46.519Z,6.23
2018-07-20T00:05:15.862Z,8.23
2018-07-20T00:07:45.224Z,5.73
2018-07-20T00:10:14.570Z,6.87
2018-07-20T00:12:44.331Z,6.77
2018-07-20T00:15:13.663Z,6.27
2018-07-20T00:17:42.623Z,6.20
2018-07-20T00:20:11.903Z,5.60
2018-07-20T00:22:41.301Z,5.40
2018-07-20T00:25:10.630Z,5.63
2018-07-20T00:27:39.950Z,5.60
2018-07-20T00:30:09.287Z,5.60
2018-07-20T00:32:38.647Z,6.47
2018-07-20T00:35:07.988Z,7.83
2018-07-20T00:37:37.313Z,6.60
2018-07-20T00:40:06.652Z,6.00
2018-07-20T00:42:35.613Z,6.03
2018-07-20T00:45:04.823Z,6.50
2018-07-20T00:47:34.175Z,7.57
2018-07-20T00:50:04.047Z,7.13
2018-07-20T00:52:33.037Z,6.60
2018-07-20T00:55:02.406Z,6.33
2018-07-20T00:57:31.828Z,6.30
2018-07-20T01:00:01.148Z,6.60
2018-07-20T01:02:30.556Z,7.77
2018-07-20T01:04:59.520Z,6.87
2018-07-20T01:07:28.475Z,6.30
2018-07-20T01:09:57.726Z,6.53
2018-07-20T01:12:27.099Z,7.50
2018-07-20T01:14:56.420Z,6.33
2018-07-20T01:17:25.450Z,6.60
2018-07-20T01:19:54.705Z,6.90
2018-07-20T01:22:24.059Z,7.30
2018-07-20T01:24:53.636Z,7.03
2018-07-20T01:27:22.998Z,7.70
2018-07-20T01:29:52.323Z,7.87
2018-07-20T01:32:21.684Z,7.97
2018-07-20T01:34:51.014Z,6.93
2018-07-20T01:37:19.993Z,6.63
2018-07-20T01:39:49.194Z,7.17
2018-07-20T01:42:18.552Z,7.03
2018-07-20T01:44:47.866Z,7.40
2018-07-20T01:47:17.478Z,6.83
2018-07-20T01:49:46.783Z,6.80
2018-07-20T01:52:16.098Z,6.90
2018-07-20T01:54:45.447Z,7.17
2018-07-20T01:57:14.746Z,6.87
2018-07-20T01:59:44.110Z,8.33
2018-07-20T02:02:13.413Z,9.13
2018-07-20T02:04:42.778Z,9.23
2018-07-20T02:07:12.122Z,8.33
2018-07-20T02:09:41.527Z,7.33
2018-07-20T02:12:11.164Z,7.13
2018-07-20T02:14:40.507Z,7.40
2018-07-20T02:17:09.836Z,6.70
2018-07-20T02:19:38.805Z,7.67
2018-07-20T02:22:07.657Z,7.67
2018-07-20T02:24:36.911Z,7.20
2018-07-20T02:27:06.257Z,8.40
2018-07-20T02:29:35.637Z,7.30
2018-07-20T02:32:04.609Z,7.80
2018-07-20T02:34:33.855Z,7.73
2018-07-20T02:37:03.192Z,7.43
2018-07-20T02:39:32.170Z,7.40
2018-07-20T02:42:01.392Z,7.17
2018-07-20T02:44:30.768Z,7.27
2018-07-20T02:47:00.104Z,7.10
2018-07-20T02:49:29.432Z,7.70
2018-07-20T02:51:58.816Z,7.47
2018-07-20T02:54:28.127Z,7.30
2018-07-20T02:56:57.491Z,8.13
2018-07-20T02:59:26.790Z,8.00
2018-07-20T03:01:56.151Z,8.67
2018-07-20T03:04:25.482Z,8.13
2018-07-20T03:06:54.858Z,7.87
2018-07-20T03:09:24.224Z,8.37
2018-07-20T03:11:53.582Z,8.30
2018-07-20T03:14:22.995Z,8.27
2018-07-20T03:16:52.360Z,9.20
2018-07-20T03:19:21.677Z,8.70
2018-07-20T03:21:51.037Z,8.73
2018-07-20T03:24:20.343Z,9.03
2018-07-20T03:26:49.695Z,8.10
2018-07-20T03:29:19.038Z,8.70
2018-07-20T03:31:48.379Z,9.07
2018-07-20T03:34:17.708Z,8.80
2018-07-20T03:36:47.066Z,7.50
2018-07-20T03:39:16.367Z,8.77
2018-07-20T03:41:45.727Z,9.07
2018-07-20T03:44:15.055Z,9.63
2018-07-20T03:46:44.419Z,9.00
2018-07-20T03:49:13.714Z,9.30
2018-07-20T03:51:43.027Z,8.67
2018-07-20T03:54:12.375Z,8.30
2018-07-20T03:56:41.717Z,7.77
2018-07-20T03:59:11.031Z,8.43
2018-07-20T04:01:40.407Z,9.00
2018-07-20T04:04:09.752Z,9.60
2018-07-20T04:06:39.103Z,8.70
2018-07-20T04:09:09.546Z,10.70
2018-07-20T04:11:39.030Z,10.20
2018-07-20T04:14:08.607Z,9.37
2018-07-20T04:16:38.122Z,9.60
2018-07-20T04:19:07.551Z,9.00
2018-07-20T04:21:36.899Z,9.77
2018-07-20T04:24:06.245Z,10.00
2018-07-20T04:26:35.543Z,9.83
2018-07-20T04:29:04.949Z,9.67
2018-07-20T04:31:34.272Z,10.53
2018-07-20T04:34:03.614Z,9.90
2018-07-20T04:36:32.994Z,10.03
2018-07-20T04:39:02.001Z,9.53
2018-07-20T04:41:31.263Z,10.10
2018-07-20T04:44:00.581Z,9.50
2018-07-20T04:46:29.947Z,9.17
2018-07-20T04:48:59.259Z,10.13
2018-07-20T04:51:28.604Z,10.33
2018-07-20T04:53:57.537Z,9.97
2018-07-20T04:56:26.864Z,9.90
2018-07-20T04:58:56.263Z,11.07
2018-07-20T05:01:25.617Z,10.53
2018-07-20T05:03:55.094Z,10.50
2018-07-20T05:06:24.462Z,10.97
2018-07-20T05:08:53.817Z,11.13
2018-07-20T05:11:23.236Z,11.53
2018-07-20T05:13:52.515Z,13.30
2018-07-20T05:16:21.862Z,11.30
2018-07-20T05:18:51.183Z,11.17
2018-07-20T05:21:20.533Z,10.57
2018-07-20T05:23:49.879Z,11.53
2018-07-20T05:26:19.219Z,10.87
2018-07-20T05:28:48.555Z,10.77
2018-07-20T05:31:18.089Z,12.00
2018-07-20T05:33:47.403Z,12.40
2018-07-20T05:36:16.758Z,11.13
2018-07-20T05:38:46.082Z,11.57
2018-07-20T05:41:15.440Z,13.10
2018-07-20T05:43:45.890Z,12.67
2018-07-20T05:46:14.863Z,13.23
2018-07-20T05:48:44.095Z,11.73
2018-07-20T05:51:13.641Z,13.83
2018-07-20T05:53:42.983Z,11.20
2018-07-20T05:56:12.643Z,12.17
2018-07-20T05:58:41.985Z,14.57
2018-07-20T06:01:11.315Z,14.20
2018-07-20T06:03:40.670Z,14.40
2018-07-20T06:06:10.199Z,13.73
2018-07-20T06:08:39.575Z,14.70
2018-07-20T06:11:08.886Z,12.83
2018-07-20T06:13:38.276Z,13.00
2018-07-20T06:16:07.607Z,13.77
2018-07-20T06:18:37.397Z,11.87
2018-07-20T06:21:08.382Z,11.37
2018-07-20T06:23:37.845Z,10.10
2018-07-20T06:26:07.199Z,11.80
2018-07-20T06:28:36.571Z,13.17
2018-07-20T06:31:05.517Z,11.90
2018-07-20T06:33:35.396Z,12.13
2018-07-20T06:36:05.348Z,12.57
2018-07-20T06:38:34.666Z,11.27
2018-07-20T06:41:04.055Z,11.33
2018-07-20T06:43:33.375Z,11.83
2018-07-20T06:46:02.716Z,14.97
2018-07-20T06:48:32.047Z,11.10
2018-07-20T06:51:01.431Z,11.40
2018-07-20T06:53:30.408Z,11.70
2018-07-20T06:55:59.672Z,12.50
2018-07-20T06:58:28.963Z,10.57
2018-07-20T07:00:58.327Z,9.23
2018-07-20T07:03:27.625Z,9.80
2018-07-20T07:05:56.975Z,9.30
2018-07-20T07:08:25.969Z,10.73
2018-07-20T07:10:55.240Z,8.53
2018-07-20T07:13:24.581Z,10.20
2018-07-20T07:15:53.943Z,8.93
2018-07-20T07:18:23.342Z,8.73
2018-07-20T07:20:52.221Z,7.63
2018-07-20T07:23:21.122Z,8.93
2018-07-20T07:25:49.992Z,9.00
2018-07-20T07:28:19.281Z,8.47
2018-07-20T07:30:48.608Z,8.33
2018-07-20T07:33:17.979Z,8.10
2018-07-20T07:35:47.347Z,7.87
2018-07-20T07:38:16.314Z,8.93
2018-07-20T07:40:45.167Z,7.80
2018-07-20T07:43:14.404Z,7.57
2018-07-20T07:45:43.729Z,7.70
2018-07-20T07:48:13.063Z,7.73
2018-07-20T07:50:42.405Z,7.47
2018-07-20T07:53:11.776Z,8.53
2018-07-20T07:55:41.066Z,8.53
2018-07-20T07:58:10.403Z,7.43
2018-07-20T08:00:39.807Z,7.87
2018-07-20T08:03:09.207Z,8.10
2018-07-20T08:05:38.561Z,7.57
2018-07-20T08:08:07.957Z,7.57
2018-07-20T08:10:37.323Z,7.63
2018-07-20T08:13:06.686Z,9.50
2018-07-20T08:15:36.054Z,7.27
2018-07-20T08:18:05.448Z,10.43
2018-07-20T08:20:34.851Z,6.77
2018-07-20T08:23:04.216Z,6.80
2018-07-20T08:25:33.643Z,7.03
2018-07-20T08:28:02.979Z,9.10
2018-07-20T08:30:32.352Z,8.23
2018-07-20T08:33:01.747Z,7.67
2018-07-20T08:35:30.777Z,7.10
2018-07-20T08:38:00.020Z,8.67
2018-07-20T08:40:29.843Z,14.40
2018-07-20T08:42:59.505Z,6.77
2018-07-20T08:45:30.010Z,6.57
2018-07-20T08:47:59.603Z,6.83
2018-07-20T08:50:29.442Z,6.80
2018-07-20T08:52:59.167Z,6.20
2018-07-20T08:55:28.921Z,6.63
2018-07-20T08:57:58.509Z,9.93
2018-07-20T09:00:27.916Z,6.20
2018-07-20T09:02:57.377Z,6.10
2018-07-20T09:05:27.283Z,6.87
2018-07-20T09:07:56.686Z,7.50
2018-07-20T09:10:26.043Z,6.70
2018-07-20T09:12:55.383Z,6.00
2018-07-20T09:15:24.394Z,5.20
2018-07-20T09:17:53.291Z,5.13
2018-07-20T09:20:22.610Z,5.60
2018-07-20T09:22:51.963Z,7.17
2018-07-20T09:25:21.488Z,8.03
2018-07-20T09:27:50.926Z,5.73
2018-07-20T09:30:20.417Z,5.53
2018-07-20T09:32:49.795Z,6.07
2018-07-20T09:35:18.804Z,7.20
2018-07-20T09:37:48.105Z,5.47
2018-07-20T09:40:17.544Z,5.00
2018-07-20T09:42:47.051Z,6.33
2018-07-20T09:45:16.351Z,5.67
2018-07-20T09:47:45.732Z,5.77
2018-07-20T09:50:15.049Z,5.70
2018-07-20T09:52:44.399Z,5.17
2018-07-20T09:55:13.822Z,7.70
2018-07-20T09:57:42.859Z,5.47
2018-07-20T10:00:12.132Z,4.80
2018-07-20T10:02:41.483Z,5.20
2018-07-20T10:05:10.800Z,4.97
2018-07-20T10:07:40.330Z,5.17
2018-07-20T10:10:09.665Z,5.70
2018-07-20T10:12:38.681Z,5.00
2018-07-20T10:15:07.890Z,8.47
2018-07-20T10:17:37.246Z,4.90
2018-07-20T10:20:06.553Z,4.57
2018-07-20T10:22:35.536Z,4.90
2018-07-20T10:25:04.770Z,4.63
2018-07-20T10:27:34.115Z,4.47
2018-07-20T10:30:03.835Z,5.10
2018-07-20T10:32:33.208Z,4.10
2018-07-20T10:35:02.520Z,4.27
2018-07-20T10:37:31.923Z,7.93
2018-07-20T10:40:01.249Z,4.53
2018-07-20T10:42:30.558Z,5.13
2018-07-20T10:44:59.429Z,4.70
2018-07-20T10:47:28.711Z,4.50
2018-07-20T10:49:58.042Z,5.23
2018-07-20T10:52:27.400Z,4.43
2018-07-20T10:54:56.816Z,5.20
2018-07-20T10:57:26.117Z,5.10
2018-07-20T10:59:55.456Z,4.87
2018-07-20T11:02:24.784Z,3.97
2018-07-20T11:04:54.156Z,4.30
2018-07-20T11:07:23.098Z,4.53
2018-07-20T11:09:52.392Z,4.40
2018-07-20T11:12:21.726Z,5.00
2018-07-20T11:14:51.036Z,4.73
2018-07-20T11:17:20.393Z,4.60
2018-07-20T11:19:49.867Z,4.73
2018-07-20T11:22:19.197Z,5.37
2018-07-20T11:24:48.552Z,5.00
2018-07-20T11:27:17.905Z,4.70
2018-07-20T11:29:47.275Z,4.90
2018-07-20T11:32:16.982Z,4.43
2018-07-20T11:34:46.897Z,6.90
2018-07-20T11:37:16.747Z,4.80
2018-07-20T11:39:45.750Z,4.97
2018-07-20T11:42:14.644Z,4.77
2018-07-20T11:44:43.920Z,4.80
2018-07-20T11:47:13.239Z,5.30
2018-07-20T11:49:42.605Z,6.50
2018-07-20T11:52:12.108Z,4.97
2018-07-20T11:54:41.436Z,4.20
2018-07-20T11:57:10.607Z,5.00
2018-07-20T11:59:39.844Z,5.10
2018-07-20T12:02:10.172Z,4.63
2018-07-20T12:04:39.490Z,4.50
2018-07-20T12:07:08.844Z,4.73
2018-07-20T12:09:38.228Z,4.93
2018-07-20T12:12:07.637Z,4.60
2018-07-20T12:14:36.992Z,5.53
2018-07-20T12:17:06.359Z,3.93
2018-07-20T12:19:35.799Z,4.67
2018-07-20T12:22:05.108Z,5.10
2018-07-20T12:24:34.432Z,4.73
2018-07-20T12:27:03.791Z,4.77
2018-07-20T12:29:33.122Z,6.13
2018-07-20T12:32:02.463Z,5.17
2018-07-20T12:34:31.780Z,5.07
2018-07-20T12:37:01.132Z,4.87
2018-07-20T12:39:30.451Z,4.80
2018-07-20T12:44:34.549Z,4.67
2018-07-20T12:47:03.833Z,4.70
2018-07-20T12:49:33.154Z,5.40
2018-07-20T12:52:02.454Z,5.40
2018-07-20T12:54:31.779Z,4.53
2018-07-20T12:57:01.102Z,5.27
2018-07-20T12:59:30.451Z,5.07
2018-07-20T13:01:59.839Z,6.70
2018-07-20T13:04:29.203Z,4.93
2018-07-20T13:06:58.539Z,5.23
2018-07-20T13:09:27.928Z,5.00
2018-07-20T13:11:57.325Z,5.90
2018-07-20T13:14:26.647Z,6.33
2018-07-20T13:16:55.941Z,5.70
2018-07-20T13:19:25.287Z,5.87
2018-07-20T13:21:54.583Z,10.40
2018-07-20T13:24:23.928Z,5.07
2018-07-20T13:26:53.245Z,5.30
2018-07-20T13:29:22.614Z,5.00
2018-07-20T13:31:51.928Z,5.60
2018-07-20T13:34:21.295Z,5.37
2018-07-20T13:36:50.651Z,5.30
2018-07-20T13:39:20.007Z,5.70
2018-07-20T13:41:49.984Z,5.60
2018-07-20T13:44:19.398Z,5.40
2018-07-20T13:46:49.257Z,8.47
2018-07-20T13:49:18.970Z,5.90
2018-07-20T13:51:48.351Z,5.10
2018-07-20T13:54:17.647Z,5.23
2018-07-20T13:56:46.992Z,5.80
2018-07-20T13:59:16.288Z,6.70
2018-07-20T14:01:45.627Z,6.23
2018-07-20T14:04:15.845Z,6.10
2018-07-20T14:06:45.232Z,6.10
2018-07-20T14:09:14.571Z,5.47
2018-07-20T14:11:43.943Z,5.13
2018-07-20T14:14:13.239Z,5.33
2018-07-20T14:16:42.701Z,6.07
2018-07-20T14:19:12.024Z,6.67
2018-07-20T14:21:41.559Z,6.03
2018-07-20T14:24:10.892Z,5.97
2018-07-20T14:26:40.351Z,7.53
2018-07-20T14:29:09.363Z,6.40
2018-07-20T14:31:38.729Z,5.10
2018-07-20T14:34:08.019Z,5.83
2018-07-20T14:36:38.146Z,5.00
2018-07-20T14:39:08.054Z,5.53
2018-07-20T14:41:37.319Z,5.13
2018-07-20T14:44:06.331Z,5.77
2018-07-20T14:46:35.741Z,9.20
2018-07-20T14:49:05.118Z,9.63
2018-07-20T14:51:34.498Z,6.87
2018-07-20T14:54:03.839Z,5.73
2018-07-20T14:56:32.844Z,5.77
2018-07-20T14:59:02.100Z,5.10
2018-07-20T15:01:31.480Z,5.87
2018-07-20T15:04:00.807Z,5.87
2018-07-20T15:06:30.203Z,5.37
2018-07-20T15:08:59.568Z,5.60
2018-07-20T15:11:28.550Z,5.73
2018-07-20T15:13:57.463Z,5.07
2018-07-20T15:16:26.784Z,5.80
2018-07-20T15:18:56.116Z,6.10
2018-07-20T15:21:25.423Z,6.20
2018-07-20T15:23:54.801Z,5.77
2018-07-20T15:26:24.133Z,6.30
2018-07-20T15:28:53.500Z,5.37
2018-07-20T15:31:22.855Z,6.73
2018-07-20T15:33:52.246Z,6.17
2018-07-20T15:36:21.556Z,16.17
2018-07-20T15:38:50.936Z,5.97
2018-07-20T15:41:20.268Z,6.70
2018-07-20T15:43:49.628Z,6.30
2018-07-20T15:46:19.219Z,5.83
2018-07-20T15:48:48.499Z,7.80
2018-07-20T15:51:17.790Z,6.33
2018-07-20T15:53:47.195Z,4.97
2018-07-20T15:56:16.519Z,6.00
2018-07-20T15:58:45.844Z,6.47
2018-07-20T16:01:15.143Z,8.63
2018-07-20T16:03:44.483Z,6.87
2018-07-20T16:06:13.864Z,6.83
2018-07-20T16:08:43.247Z,10.67
2018-07-20T16:11:12.558Z,6.90
2018-07-20T16:13:41.875Z,6.07
2018-07-20T16:16:11.224Z,5.90
2018-07-20T16:18:40.162Z,6.40
2018-07-20T16:21:09.399Z,7.30
2018-07-20T16:23:38.700Z,5.70
2018-07-20T16:26:08.214Z,5.73
2018-07-20T16:28:37.440Z,6.97
2018-07-20T16:31:06.820Z,6.83
2018-07-20T16:33:36.159Z,6.20
2018-07-20T16:36:05.511Z,6.87
2018-07-20T16:38:34.871Z,5.47
2018-07-20T16:41:03.909Z,6.10
2018-07-20T16:43:33.098Z,7.40
2018-07-20T16:46:02.426Z,6.80
2018-07-20T16:48:31.763Z,10.97
2018-07-20T16:51:01.104Z,7.30
2018-07-20T16:53:30.465Z,5.50
2018-07-20T16:55:59.824Z,6.33
2018-07-20T16:58:29.127Z,8.30
2018-07-20T17:00:58.551Z,6.70
2018-07-20T17:03:27.903Z,6.60
2018-07-20T17:05:57.248Z,6.40
2018-07-20T17:08:26.588Z,6.10
2018-07-20T17:10:55.955Z,6.70
2018-07-20T17:13:25.286Z,5.50
2018-07-20T17:15:54.671Z,9.80
2018-07-20T17:18:24.004Z,6.50
2018-07-20T17:20:53.338Z,7.13
2018-07-20T17:23:22.656Z,7.67
2018-07-20T17:25:51.969Z,7.67
2018-07-20T17:28:21.292Z,5.97
2018-07-20T17:30:50.606Z,6.63
2018-07-20T17:33:19.932Z,6.03
2018-07-20T17:35:49.266Z,6.40
2018-07-20T17:38:18.679Z,6.30
2018-07-20T17:40:48.466Z,6.30
2018-07-20T17:43:17.855Z,6.07
2018-07-20T17:45:47.208Z,7.00
2018-07-20T17:48:16.571Z,6.50
2018-07-20T17:50:45.913Z,6.30
2018-07-20T17:53:15.372Z,6.30
2018-07-20T17:55:44.709Z,8.77
2018-07-20T17:58:14.077Z,5.90
2018-07-20T18:00:43.415Z,5.90
2018-07-20T18:03:12.844Z,6.57
2018-07-20T18:05:42.170Z,6.00
2018-07-20T18:08:11.533Z,6.33
2018-07-20T18:10:40.883Z,6.40
2018-07-20T18:13:10.223Z,7.17
2018-07-20T18:15:39.549Z,6.37
2018-07-20T18:18:08.910Z,6.37
2018-07-20T18:20:38.211Z,6.70
2018-07-20T18:23:07.888Z,7.10
2018-07-20T18:25:37.289Z,6.03
2018-07-20T18:28:06.600Z,5.73
2018-07-20T18:30:35.668Z,6.83
2018-07-20T18:33:05.012Z,7.57
2018-07-20T18:35:34.355Z,6.90
2018-07-20T18:38:03.684Z,6.70
2018-07-20T18:40:33.207Z,5.80
2018-07-20T18:43:02.967Z,6.47
2018-07-20T18:45:32.743Z,5.33
2018-07-20T18:48:02.239Z,6.63
2018-07-20T18:50:31.592Z,6.83
2018-07-20T18:53:01.511Z,6.00
2018-07-20T18:55:31.440Z,6.67
2018-07-20T18:58:01.041Z,6.23
2018-07-20T19:00:30.989Z,6.47
2018-07-20T19:03:00.447Z,6.97
2018-07-20T19:05:29.973Z,6.90
2018-07-20T19:07:59.667Z,7.30
2018-07-20T19:10:29.855Z,7.73
2018-07-20T19:12:59.507Z,6.67
2018-07-20T19:15:29.148Z,6.90
2018-07-20T19:17:58.839Z,7.00
2018-07-20T19:20:28.380Z,7.10
2018-07-20T19:22:58.836Z,6.67
2018-07-20T19:25:29.204Z,6.77
2018-07-20T19:27:59.417Z,6.90
2018-07-20T19:30:29.377Z,7.10
2018-07-20T19:32:58.751Z,7.20
2018-07-20T19:35:28.142Z,6.30
2018-07-20T19:37:57.574Z,7.00
2018-07-20T19:40:26.968Z,6.53
2018-07-20T19:42:56.331Z,6.83
2018-07-20T19:45:25.647Z,7.43
2018-07-20T19:47:54.839Z,8.03
2018-07-20T19:50:23.993Z,6.93
2018-07-20T19:52:53.628Z,7.50
2018-07-20T19:55:23.374Z,7.20
2018-07-20T19:57:53.200Z,6.77
2018-07-20T20:00:22.900Z,9.43
2018-07-20T20:02:52.483Z,7.30
2018-07-20T20:05:21.858Z,7.10
2018-07-20T20:07:51.273Z,9.67
2018-07-20T20:10:20.210Z,10.93
2018-07-20T20:12:49.869Z,11.37
2018-07-20T20:15:19.512Z,12.10
2018-07-20T20:17:49.249Z,10.87
2018-07-20T20:20:18.852Z,13.63
2018-07-20T20:22:48.587Z,12.87
2018-07-20T20:25:18.639Z,12.70
2018-07-20T20:27:48.148Z,11.47
2018-07-20T20:30:17.615Z,17.97
2018-07-20T20:32:47.218Z,18.43
2018-07-20T20:35:16.695Z,13.43
2018-07-20T20:37:46.311Z,13.20
2018-07-20T20:40:15.984Z,16.00
2018-07-20T20:42:45.472Z,11.43
2018-07-20T20:45:14.819Z,13.10
2018-07-20T20:47:43.825Z,13.40
2018-07-20T20:50:13.110Z,14.60
2018-07-20T20:52:42.451Z,15.87
2018-07-20T20:55:11.798Z,14.90
2018-07-20T20:57:41.143Z,14.37
2018-07-20T21:00:10.715Z,14.07
2018-07-20T21:02:40.062Z,16.87
2018-07-20T21:05:09.462Z,14.77
2018-07-20T21:07:38.883Z,13.20
2018-07-20T21:10:08.311Z,12.93
2018-07-20T21:12:37.657Z,12.00
2018-07-20T21:15:07.873Z,12.20
2018-07-20T21:17:37.214Z,12.60
2018-07-20T21:20:06.570Z,12.97
2018-07-20T21:22:35.899Z,11.67
2018-07-20T21:25:06.262Z,12.60
2018-07-20T21:27:35.246Z,12.47
2018-07-20T21:30:05.027Z,12.30
2018-07-20T21:32:34.444Z,13.20
2018-07-20T21:35:03.760Z,14.90
2018-07-20T21:37:33.120Z,15.70
2018-07-20T21:40:02.350Z,15.70
2018-07-20T21:42:31.763Z,17.10
2018-07-20T21:45:01.087Z,16.47
2018-07-20T21:47:30.102Z,17.50
2018-07-20T21:49:59.339Z,16.67
2018-07-20T21:52:28.691Z,13.33
2018-07-20T21:54:58.231Z,12.33
2018-07-20T21:57:27.234Z,13.70
2018-07-20T21:59:56.476Z,15.40
2018-07-20T22:02:25.836Z,12.30
2018-07-20T22:04:54.893Z,12.80
2018-07-20T22:07:24.184Z,13.93
2018-07-20T22:09:54.002Z,15.43
2018-07-20T22:12:23.081Z,14.07
2018-07-20T22:14:52.422Z,12.90
2018-07-20T22:17:21.829Z,13.23
2018-07-20T22:19:51.161Z,12.50
2018-07-20T22:22:20.630Z,12.40
2018-07-20T22:24:49.939Z,11.30
2018-07-20T22:27:19.314Z,14.23
2018-07-20T22:29:48.677Z,12.90
2018-07-20T22:32:18.007Z,11.80
2018-07-20T22:34:47.431Z,13.17
2018-07-20T22:37:17.012Z,13.60
2018-07-20T22:39:46.419Z,13.33
2018-07-20T22:42:15.775Z,13.50
2018-07-20T22:44:45.143Z,13.47
2018-07-20T22:47:14.480Z,12.73
2018-07-20T22:49:43.871Z,13.77
2018-07-20T22:52:13.243Z,12.50
2018-07-20T22:54:42.594Z,13.30
2018-07-20T22:57:11.913Z,12.50
2018-07-20T22:59:41.301Z,14.30
2018-07-20T23:02:10.680Z,14.30
2018-07-20T23:04:39.660Z,13.97
2018-07-20T23:07:08.903Z,13.43
2018-07-20T23:09:38.307Z,15.03
2018-07-20T23:12:07.688Z,14.17
2018-07-20T23:14:37.064Z,11.80
2018-07-20T23:17:06.438Z,12.13
2018-07-20T23:19:35.440Z,12.33
2018-07-20T23:22:04.320Z,12.63
2018-07-20T23:24:33.587Z,12.10
2018-07-20T23:27:02.935Z,12.93
2018-07-20T23:29:31.948Z,11.17
2018-07-20T23:32:01.224Z,11.40
2018-07-20T23:34:30.589Z,11.37
2018-07-20T23:37:00.008Z,12.57
2018-07-20T23:39:29.348Z,11.10
2018-07-20T23:41:58.727Z,9.70
2018-07-20T23:44:28.071Z,9.30
2018-07-20T23:46:57.821Z,8.33
2018-07-20T23:49:27.119Z,8.33
2018-07-20T23:51:56.464Z,8.10
2018-07-20T23:54:25.770Z,8.33
2018-07-20T23:56:55.110Z,9.23
2018-07-20T23:59:24.409Z,8.73
